createdAt,value
2022-08-14T00:01:31.061Z,100.00
2022-08-14T00:04:35.162Z,100.00
2022-08-14T00:07:24.442Z,100.00
2022-08-14T00:10:51.140Z,100.00
2022-08-14T00:13:24.553Z,100.00
2022-08-14T00:16:41.041Z,100.00
2022-08-14T00:19:21.631Z,100.00
2022-08-14T00:22:08.619Z,100.00
2022-08-14T00:24:56.284Z,100.00
2022-08-14T00:27:44.152Z,100.00
2022-08-14T00:30:37.256Z,100.00
2022-08-14T00:33:51.109Z,100.00
2022-08-14T00:36:49.717Z,100.00
2022-08-14T00:39:37.233Z,100.00
2022-08-14T00:42:55.157Z,100.00
2022-08-14T00:45:31.222Z,100.00
2022-08-14T00:48:34.633Z,100.00
2022-08-14T00:51:23.467Z,100.00
2022-08-14T00:54:22.174Z,100.00
2022-08-14T00:57:09.150Z,100.00
2022-08-14T00:59:56.503Z,100.00
2022-08-14T01:02:45.431Z,100.00
2022-08-14T01:05:51.842Z,100.00
2022-08-14T01:08:51.769Z,100.00
2022-08-14T01:11:45.147Z,100.00
2022-08-14T01:14:43.856Z,100.00
2022-08-14T01:17:49.513Z,100.00
2022-08-14T01:20:54.158Z,100.00
2022-08-14T01:23:47.075Z,100.00
2022-08-14T01:26:38.898Z,100.00
2022-08-14T01:29:40.408Z,100.00
2022-08-14T01:32:37.619Z,100.00
2022-08-14T01:36:05.287Z,100.00
2022-08-14T01:38:37.119Z,100.00
2022-08-14T01:41:30.179Z,100.00
2022-08-14T01:44:32.940Z,100.00
2022-08-14T01:47:22.213Z,100.00
2022-08-14T01:50:11.370Z,100.00
2022-08-14T01:53:01.250Z,100.00
2022-08-14T01:55:51.712Z,100.00
2022-08-14T01:58:57.440Z,100.00
2022-08-14T02:01:51.338Z,100.00
2022-08-14T02:04:55.612Z,100.00
2022-08-14T02:07:44.936Z,100.00
2022-08-14T02:10:47.369Z,100.00
2022-08-14T02:13:37.127Z,100.00
2022-08-14T02:16:29.771Z,100.00
2022-08-14T02:19:19.404Z,100.00
2022-08-14T02:22:06.945Z,100.00
2022-08-14T02:24:57.209Z,100.00
2022-08-14T02:28:23.307Z,100.00
2022-08-14T02:30:52.661Z,100.00
2022-08-14T02:33:42.536Z,100.00
2022-08-14T02:37:05.186Z,100.00
2022-08-14T02:39:38.026Z,100.00
2022-08-14T02:42:37.565Z,100.00
2022-08-14T02:45:24.507Z,100.00
2022-08-14T02:49:05.404Z,100.00
2022-08-14T02:51:19.070Z,100.00
2022-08-14T02:54:07.365Z,100.00
2022-08-14T02:57:15.394Z,100.00
2022-08-14T03:00:03.045Z,100.00
2022-08-14T03:02:58.758Z,100.00
2022-08-14T03:05:45.941Z,100.00
2022-08-14T03:08:38.700Z,100.00
2022-08-14T03:11:34.514Z,100.00
2022-08-14T03:14:27.400Z,100.00
2022-08-14T03:17:15.996Z,100.00
2022-08-14T03:20:06.929Z,100.00
2022-08-14T03:22:59.581Z,100.00
2022-08-14T03:25:49.154Z,100.00
2022-08-14T03:28:36.622Z,100.00
2022-08-14T03:31:26.150Z,100.00
2022-08-14T03:34:25.026Z,100.00
2022-08-14T03:37:51.626Z,100.00
2022-08-14T03:40:29.162Z,100.00
2022-08-14T03:43:17.908Z,100.00
2022-08-14T03:46:04.540Z,100.00
2022-08-14T03:49:13.511Z,100.00
2022-08-14T03:52:03.007Z,100.00
2022-08-14T03:54:52.644Z,100.00
2022-08-14T03:57:40.533Z,100.00
2022-08-14T04:00:43.073Z,100.00
2022-08-14T04:03:31.727Z,100.00
2022-08-14T04:06:20.962Z,100.00
2022-08-14T04:09:08.983Z,100.00
2022-08-14T04:11:58.038Z,100.00
2022-08-14T04:14:46.435Z,100.00
2022-08-14T04:17:44.504Z,100.00
2022-08-14T04:20:34.283Z,100.00
2022-08-14T04:23:39.621Z,100.00
2022-08-14T04:26:42.394Z,100.00
2022-08-14T04:29:32.807Z,100.00
2022-08-14T04:33:02.839Z,100.00
2022-08-14T04:35:55.297Z,100.00
2022-08-14T04:38:58.474Z,100.00
2022-08-14T04:42:03.563Z,100.00
2022-08-14T04:44:51.530Z,100.00
2022-08-14T04:48:04.692Z,100.00
2022-08-14T04:50:54.417Z,100.00
2022-08-14T04:53:44.659Z,100.00
2022-08-14T04:56:34.323Z,100.00
2022-08-14T04:59:21.348Z,100.00
2022-08-14T05:02:18.438Z,100.00
2022-08-14T05:05:06.440Z,100.00
2022-08-14T05:08:01.493Z,100.00
2022-08-14T05:10:52.050Z,100.00
2022-08-14T05:14:06.562Z,100.00
2022-08-14T05:16:48.299Z,100.00
2022-08-14T05:19:44.302Z,100.00
2022-08-14T05:22:42.170Z,100.00
2022-08-14T05:25:33.609Z,100.00
2022-08-14T05:28:25.381Z,100.00
2022-08-14T05:31:20.545Z,100.00
2022-08-14T05:34:07.942Z,100.00
2022-08-14T05:37:01.944Z,100.00
2022-08-14T05:39:48.895Z,100.00
2022-08-14T05:42:37.188Z,100.00
2022-08-14T05:45:24.582Z,100.00
2022-08-14T05:48:32.955Z,100.00
2022-08-14T05:51:23.262Z,100.00
2022-08-14T05:54:26.614Z,100.00
2022-08-14T05:57:13.913Z,100.00
2022-08-14T06:00:02.084Z,100.00
2022-08-14T06:02:50.828Z,100.00
2022-08-14T06:05:39.691Z,100.00
2022-08-14T06:08:36.013Z,100.00
2022-08-14T06:11:30.598Z,100.00
2022-08-14T06:14:21.325Z,100.00
2022-08-14T06:17:15.762Z,100.00
2022-08-14T06:20:14.462Z,100.00
2022-08-14T06:23:01.073Z,100.00
2022-08-14T06:25:52.699Z,100.00
2022-08-14T06:28:40.489Z,100.00
2022-08-14T06:31:32.345Z,100.00
2022-08-14T06:35:03.796Z,100.00
2022-08-14T06:37:27.671Z,100.00
2022-08-14T06:40:27.118Z,100.00
2022-08-14T06:43:16.950Z,100.00
2022-08-14T06:46:04.256Z,100.00
2022-08-14T06:48:51.085Z,100.00
2022-08-14T06:51:44.444Z,100.00
2022-08-14T06:54:32.075Z,100.00
2022-08-14T06:57:24.492Z,100.00
2022-08-14T07:00:22.416Z,100.00
2022-08-14T07:03:33.951Z,100.00
2022-08-14T07:06:46.497Z,100.00
2022-08-14T07:09:40.614Z,100.00
2022-08-14T07:12:34.828Z,100.00
2022-08-14T07:16:27.517Z,100.00
2022-08-14T07:19:13.973Z,100.00
2022-08-14T07:22:05.531Z,100.00
2022-08-14T07:25:06.146Z,100.00
2022-08-14T07:27:53.207Z,100.00
2022-08-14T07:30:41.914Z,100.00
2022-08-14T07:33:41.735Z,100.00
2022-08-14T07:36:30.583Z,100.00
2022-08-14T07:39:17.357Z,100.00
2022-08-14T07:42:15.531Z,100.00
2022-08-14T07:45:07.550Z,100.00
2022-08-14T07:47:58.793Z,100.00
2022-08-14T07:50:47.018Z,100.00
2022-08-14T07:53:36.691Z,100.00
2022-08-14T07:56:47.156Z,98.67
2022-08-14T07:59:40.830Z,98.81
2022-08-14T08:02:32.705Z,98.47
2022-08-14T08:05:24.948Z,95.54
2022-08-14T08:08:27.267Z,92.86
2022-08-14T08:11:15.546Z,95.40
2022-08-14T08:14:24.898Z,87.82
2022-08-14T08:17:26.365Z,87.04
2022-08-14T08:20:29.640Z,86.85
2022-08-14T08:23:20.680Z,89.98
2022-08-14T08:26:12.070Z,94.35
2022-08-14T08:29:02.270Z,89.86
2022-08-14T08:31:52.291Z,86.85
2022-08-14T08:34:48.599Z,87.39
2022-08-14T08:37:40.209Z,86.87
2022-08-14T08:40:31.487Z,85.23
2022-08-14T08:43:22.344Z,81.13
2022-08-14T08:46:21.009Z,78.73
2022-08-14T08:49:18.773Z,76.40
2022-08-14T08:52:24.901Z,74.23
2022-08-14T08:55:17.075Z,71.52
2022-08-14T08:58:16.167Z,75.71
2022-08-14T09:01:03.180Z,70.47
2022-08-14T09:03:49.909Z,74.51
2022-08-14T09:07:00.523Z,70.13
2022-08-14T09:09:58.596Z,67.90
2022-08-14T09:12:51.660Z,65.30
2022-08-14T09:15:42.678Z,67.41
2022-08-14T09:18:30.226Z,64.36
2022-08-14T09:21:18.423Z,63.08
2022-08-14T09:24:29.414Z,62.98
2022-08-14T09:27:22.386Z,62.58
2022-08-14T09:30:12.895Z,62.65
2022-08-14T09:34:01.909Z,67.04
2022-08-14T09:37:12.936Z,59.67
2022-08-14T09:40:08.030Z,59.19
2022-08-14T09:43:12.098Z,56.76
2022-08-14T09:46:02.552Z,56.22
2022-08-14T09:48:59.545Z,56.51
2022-08-14T09:51:58.401Z,54.64
2022-08-14T09:54:48.008Z,55.18
2022-08-14T09:57:35.390Z,53.63
2022-08-14T10:00:42.598Z,54.63
2022-08-14T10:03:33.991Z,55.57
2022-08-14T10:06:25.064Z,55.39
2022-08-14T10:09:16.807Z,53.39
2022-08-14T10:12:06.607Z,53.49
2022-08-14T10:14:59.937Z,51.45
2022-08-14T10:17:49.183Z,52.64
2022-08-14T10:20:41.905Z,51.01
2022-08-14T10:23:43.565Z,50.58
2022-08-14T10:26:30.258Z,50.44
2022-08-14T10:29:23.314Z,50.41
2022-08-14T10:32:17.964Z,52.30
2022-08-14T10:35:17.712Z,52.59
2022-08-14T10:38:10.700Z,51.69
2022-08-14T10:41:12.842Z,50.80
2022-08-14T10:44:21.302Z,49.60
2022-08-14T10:47:41.175Z,49.41
2022-08-14T10:50:29.693Z,49.76
2022-08-14T10:53:17.313Z,48.69
2022-08-14T10:56:21.745Z,48.39
2022-08-14T10:59:16.070Z,47.41
2022-08-14T11:02:03.419Z,47.36
2022-08-14T11:05:05.279Z,46.98
2022-08-14T11:08:00.438Z,46.90
2022-08-14T11:10:49.541Z,46.09
2022-08-14T11:13:44.186Z,45.62
2022-08-14T11:16:31.347Z,48.33
2022-08-14T11:19:19.860Z,47.39
2022-08-14T11:22:15.338Z,49.81
2022-08-14T11:25:21.342Z,47.08
2022-08-14T11:28:10.888Z,47.52
2022-08-14T11:31:01.111Z,47.22
2022-08-14T11:33:58.105Z,46.90
2022-08-14T11:37:04.397Z,48.47
2022-08-14T11:39:52.257Z,48.12
2022-08-14T11:42:57.998Z,49.34
2022-08-14T11:45:48.887Z,48.35
2022-08-14T11:49:02.610Z,49.17
2022-08-14T11:51:54.676Z,48.45
2022-08-14T11:54:43.104Z,48.00
2022-08-14T11:57:33.780Z,46.99
2022-08-14T12:00:31.755Z,49.08
2022-08-14T12:03:27.095Z,49.63
2022-08-14T12:06:28.589Z,49.51
2022-08-14T12:09:32.761Z,49.05
2022-08-14T12:12:35.656Z,45.94
2022-08-14T12:15:38.097Z,47.37
2022-08-14T12:18:40.650Z,49.45
2022-08-14T12:21:35.785Z,46.96
2022-08-14T12:24:40.887Z,45.13
2022-08-14T12:30:48.838Z,46.56
2022-08-14T12:34:03.459Z,45.52
2022-08-14T12:37:08.156Z,45.88
2022-08-14T12:40:02.554Z,44.29
2022-08-14T12:42:56.653Z,42.66
2022-08-14T12:45:51.327Z,45.15
2022-08-14T12:49:02.526Z,40.42
2022-08-14T12:51:59.936Z,42.13
2022-08-14T12:55:06.447Z,41.27
2022-08-14T12:58:01.172Z,40.05
2022-08-14T13:01:16.158Z,39.67
2022-08-14T13:04:10.117Z,38.55
2022-08-14T13:07:11.279Z,38.38
2022-08-14T13:10:45.727Z,42.35
2022-08-14T13:13:20.182Z,41.94
2022-08-14T13:16:20.116Z,38.70
2022-08-14T13:19:12.934Z,38.20
2022-08-14T13:22:05.385Z,36.84
2022-08-14T13:24:56.833Z,39.74
2022-08-14T13:27:45.768Z,41.38
2022-08-14T13:30:34.133Z,41.02
2022-08-14T13:33:25.173Z,40.62
2022-08-14T13:36:24.002Z,38.51
2022-08-14T13:39:12.846Z,38.18
2022-08-14T13:42:08.060Z,40.64
2022-08-14T13:44:56.800Z,38.45
2022-08-14T13:47:45.453Z,39.63
2022-08-14T13:50:36.241Z,40.54
2022-08-14T13:53:24.926Z,42.18
2022-08-14T13:56:14.401Z,43.87
2022-08-14T13:59:02.497Z,41.91
2022-08-14T14:01:51.847Z,42.08
2022-08-14T14:04:41.547Z,39.92
2022-08-14T14:07:32.361Z,38.17
2022-08-14T14:10:28.231Z,41.71
2022-08-14T14:13:18.555Z,37.14
2022-08-14T14:16:08.464Z,35.77
2022-08-14T14:19:06.931Z,36.46
2022-08-14T14:21:56.481Z,36.44
2022-08-14T14:24:46.957Z,36.34
2022-08-14T14:27:40.731Z,35.92
2022-08-14T14:30:52.174Z,37.97
2022-08-14T14:33:48.945Z,36.28
2022-08-14T14:36:36.431Z,36.43
2022-08-14T14:39:27.558Z,36.17
2022-08-14T14:42:31.597Z,36.97
2022-08-14T14:45:24.321Z,36.98
2022-08-14T14:48:17.247Z,39.26
2022-08-14T14:51:07.772Z,38.74
2022-08-14T14:53:54.916Z,35.71
2022-08-14T14:56:52.308Z,39.05
2022-08-14T14:59:43.551Z,39.20
2022-08-14T15:02:36.764Z,41.53
2022-08-14T15:05:28.518Z,39.18
2022-08-14T15:08:26.437Z,42.46
2022-08-14T15:11:24.506Z,37.53
2022-08-14T15:14:55.530Z,40.90
2022-08-14T15:17:22.975Z,37.19
2022-08-14T15:20:16.820Z,37.28
2022-08-14T15:23:11.891Z,37.50
2022-08-14T15:25:59.772Z,36.80
2022-08-14T15:28:48.596Z,37.54
2022-08-14T15:31:49.565Z,37.63
2022-08-14T15:34:51.796Z,38.12
2022-08-14T15:37:42.362Z,38.98
2022-08-14T15:40:31.579Z,37.24
2022-08-14T15:43:27.334Z,37.97
2022-08-14T15:46:41.535Z,40.40
2022-08-14T15:49:34.480Z,42.00
2022-08-14T15:52:32.974Z,35.75
2022-08-14T15:55:23.107Z,33.46
2022-08-14T15:58:14.277Z,33.35
2022-08-14T16:01:31.442Z,33.31
2022-08-14T16:04:25.444Z,39.72
2022-08-14T16:12:10.893Z,36.10
2022-08-14T16:15:01.460Z,35.22
2022-08-14T16:17:50.280Z,35.51
2022-08-14T16:20:44.632Z,33.08
2022-08-14T16:23:35.957Z,35.76
2022-08-14T16:26:29.963Z,39.32
2022-08-14T16:29:21.309Z,38.58
2022-08-14T16:32:33.027Z,40.71
2022-08-14T16:35:18.915Z,39.03
2022-08-14T16:38:19.262Z,36.96
2022-08-14T16:41:22.895Z,36.79
2022-08-14T16:44:32.013Z,40.91
2022-08-14T16:47:22.555Z,40.87
2022-08-14T16:50:11.758Z,43.38
2022-08-14T16:53:02.456Z,42.42
2022-08-14T16:56:23.227Z,41.11
2022-08-14T16:59:13.438Z,41.97
2022-08-14T17:02:05.123Z,41.45
2022-08-14T17:04:53.688Z,42.04
2022-08-14T17:07:44.791Z,43.23
2022-08-14T17:10:35.447Z,39.74
2022-08-14T17:13:27.433Z,42.93
2022-08-14T17:16:37.624Z,42.89
2022-08-14T17:19:25.566Z,43.96
2022-08-14T17:22:14.072Z,44.75
2022-08-14T17:25:03.264Z,43.09
2022-08-14T17:28:49.697Z,44.94
2022-08-14T17:31:17.537Z,46.41
2022-08-14T17:34:04.809Z,46.14
2022-08-14T17:36:54.471Z,45.52
2022-08-14T17:39:45.987Z,44.73
2022-08-14T17:43:14.820Z,46.45
2022-08-14T17:46:01.627Z,43.19
2022-08-14T17:49:14.540Z,44.77
2022-08-14T17:52:07.562Z,45.46
2022-08-14T17:55:07.218Z,45.56
2022-08-14T17:57:54.752Z,45.89
2022-08-14T18:00:45.356Z,45.86
2022-08-14T18:03:49.996Z,45.88
2022-08-14T18:06:57.360Z,45.78
2022-08-14T18:09:56.286Z,46.37
2022-08-14T18:12:46.713Z,46.02
2022-08-14T18:15:37.413Z,46.41
2022-08-14T18:18:24.772Z,46.51
2022-08-14T18:21:39.922Z,46.49
2022-08-14T18:24:29.395Z,46.49
2022-08-14T18:27:23.229Z,46.24
2022-08-14T18:30:32.144Z,47.33
2022-08-14T18:33:22.213Z,47.36
2022-08-14T18:36:47.824Z,48.58
2022-08-14T18:39:32.124Z,48.10
2022-08-14T18:42:41.356Z,49.23
2022-08-14T18:45:34.296Z,49.15
2022-08-14T18:48:50.232Z,49.45
2022-08-14T18:51:44.795Z,50.36
2022-08-14T18:54:37.930Z,50.16
2022-08-14T18:57:24.390Z,51.23
2022-08-14T19:00:51.397Z,51.77
2022-08-14T19:04:02.312Z,52.70
2022-08-14T19:06:56.307Z,52.58
2022-08-14T19:09:56.228Z,53.69
2022-08-14T19:13:11.927Z,53.90
2022-08-14T19:16:07.326Z,54.16
2022-08-14T19:19:00.425Z,54.72
2022-08-14T19:21:57.797Z,55.18
2022-08-14T19:24:45.157Z,55.18
2022-08-14T19:27:37.442Z,55.35
2022-08-14T19:30:26.840Z,55.44
2022-08-14T19:33:55.208Z,55.88
2022-08-14T19:37:04.542Z,56.64
2022-08-14T19:39:54.634Z,56.43
2022-08-14T19:42:46.812Z,57.23
2022-08-14T19:45:36.447Z,57.40
2022-08-14T19:48:25.453Z,59.86
2022-08-14T19:51:12.028Z,59.80
2022-08-14T19:54:06.513Z,61.90
2022-08-14T19:57:02.561Z,61.74
2022-08-14T19:59:58.008Z,64.60
2022-08-14T20:02:48.867Z,65.04
2022-08-14T20:05:45.693Z,65.48
2022-08-14T20:10:59.683Z,66.83
2022-08-14T20:12:01.668Z,67.55
2022-08-14T20:14:51.801Z,68.88
2022-08-14T20:17:40.631Z,68.99
2022-08-14T20:20:30.687Z,70.08
2022-08-14T20:23:20.343Z,70.54
2022-08-14T20:26:30.998Z,71.53
2022-08-14T20:29:30.244Z,71.74
2022-08-14T20:32:18.178Z,73.52
2022-08-14T20:35:08.655Z,74.67
2022-08-14T20:37:59.993Z,74.81
2022-08-14T20:41:09.469Z,74.47
2022-08-14T20:44:20.667Z,75.63
2022-08-14T20:47:08.033Z,76.93
2022-08-14T20:50:20.222Z,76.65
2022-08-14T20:53:33.650Z,76.54
2022-08-14T20:56:28.622Z,78.04
2022-08-14T20:59:18.476Z,77.19
2022-08-14T21:02:30.528Z,78.73
2022-08-14T21:05:33.977Z,80.18
2022-08-14T21:08:25.634Z,78.96
2022-08-14T21:11:17.796Z,80.80
2022-08-14T21:14:24.785Z,82.24
2022-08-14T21:17:14.595Z,82.38
2022-08-14T21:20:26.439Z,83.11
2022-08-14T21:23:12.398Z,83.46
2022-08-14T21:25:59.800Z,85.96
2022-08-14T21:28:47.167Z,86.13
2022-08-14T21:31:34.294Z,85.95
2022-08-14T21:34:31.079Z,87.66
2022-08-14T21:37:19.781Z,86.96
2022-08-14T21:40:40.696Z,87.75
2022-08-14T21:43:17.917Z,88.00
2022-08-14T21:46:05.489Z,88.80
2022-08-14T21:48:52.323Z,90.00
2022-08-14T21:51:53.866Z,90.78
2022-08-14T21:54:49.338Z,91.48
2022-08-14T21:58:51.381Z,91.04
2022-08-14T22:00:44.943Z,93.01
2022-08-14T22:03:35.517Z,93.00
2022-08-14T22:06:28.897Z,93.35
2022-08-14T22:09:16.720Z,93.06
2022-08-14T22:12:45.298Z,93.12
2022-08-14T22:15:22.029Z,93.72
2022-08-14T22:18:10.068Z,93.86
2022-08-14T22:21:08.023Z,95.12
2022-08-14T22:23:54.704Z,95.07
2022-08-14T22:26:44.965Z,95.20
2022-08-14T22:29:33.633Z,94.96
2022-08-14T22:32:24.135Z,95.61
2022-08-14T22:35:23.621Z,96.41
2022-08-14T22:38:34.899Z,96.97
2022-08-14T22:41:27.716Z,96.39
2022-08-14T22:44:21.067Z,97.22
2022-08-14T22:47:10.374Z,96.45
2022-08-14T22:50:30.506Z,96.85
2022-08-14T22:53:05.757Z,96.73
2022-08-14T22:55:53.618Z,97.79
2022-08-14T22:58:40.592Z,99.78
2022-08-14T23:01:56.077Z,98.72
2022-08-14T23:04:53.646Z,99.70
2022-08-14T23:09:00.463Z,99.53
2022-08-14T23:10:48.115Z,99.56
2022-08-14T23:13:38.778Z,99.35
2022-08-14T23:16:26.163Z,99.87
2022-08-14T23:19:13.683Z,100.00
2022-08-14T23:22:02.542Z,100.00
2022-08-14T23:24:53.013Z,100.00
2022-08-14T23:28:03.335Z,100.00
2022-08-14T23:30:50.457Z,100.00
2022-08-14T23:33:45.677Z,100.00
2022-08-14T23:36:54.276Z,100.00
2022-08-14T23:39:43.072Z,100.00
2022-08-14T23:42:39.763Z,100.00
2022-08-14T23:45:35.358Z,100.00
2022-08-14T23:48:27.920Z,100.00
2022-08-14T23:51:20.030Z,100.00
2022-08-14T23:54:48.408Z,100.00
2022-08-14T23:57:15.065Z,100.00
